createdAt,value
2023-05-22T00:00:44.919Z,17.74
2023-05-22T00:03:59.028Z,17.58
2023-05-22T00:07:02.781Z,17.56
2023-05-22T00:10:11.772Z,17.31
2023-05-22T00:13:16.522Z,17.15
2023-05-22T00:16:18.806Z,17.01
2023-05-22T00:19:23.272Z,16.87
2023-05-22T00:22:28.346Z,16.85
2023-05-22T00:25:31.117Z,16.71
2023-05-22T00:28:40.114Z,16.94
2023-05-22T00:31:43.242Z,16.81
2023-05-22T00:34:46.801Z,16.77
2023-05-22T00:38:03.764Z,16.83
2023-05-22T00:41:06.723Z,16.45
2023-05-22T00:44:12.052Z,16.42
2023-05-22T00:47:16.084Z,16.27
2023-05-22T00:50:23.019Z,16.11
2023-05-22T00:53:25.619Z,16.31
2023-05-22T00:56:30.531Z,16.25
2023-05-22T00:59:32.571Z,16.16
2023-05-22T01:02:38.289Z,16.06
2023-05-22T01:05:41.586Z,16.14
2023-05-22T01:09:01.852Z,16.04
2023-05-22T01:12:39.711Z,16.16
2023-05-22T01:16:01.909Z,16.15
2023-05-22T01:19:26.706Z,16.17
2023-05-22T01:23:07.034Z,16.19
2023-05-22T01:26:50.984Z,16.10
2023-05-22T01:30:20.218Z,16.10
2023-05-22T01:33:28.776Z,16.23
2023-05-22T01:36:35.041Z,16.54
2023-05-22T01:39:37.170Z,16.76
2023-05-22T01:42:41.169Z,16.81
2023-05-22T01:45:43.001Z,16.66
2023-05-22T01:48:54.183Z,16.69
2023-05-22T01:52:19.322Z,16.69
2023-05-22T01:55:35.269Z,16.57
2023-05-22T01:58:39.388Z,16.73
2023-05-22T02:01:42.824Z,16.65
2023-05-22T02:04:55.832Z,16.71
2023-05-22T02:08:00.884Z,16.71
2023-05-22T02:14:20.424Z,16.75
2023-05-22T02:17:23.337Z,16.68
2023-05-22T02:20:28.073Z,16.85
2023-05-22T02:23:36.961Z,16.98
2023-05-22T02:26:39.698Z,17.04
2023-05-22T02:29:44.301Z,17.01
2023-05-22T02:32:48.621Z,16.80
2023-05-22T02:35:53.090Z,16.86
2023-05-22T02:38:59.115Z,16.95
2023-05-22T02:42:09.494Z,16.90
2023-05-22T02:45:13.014Z,16.69
2023-05-22T02:48:19.388Z,16.39
2023-05-22T02:51:23.282Z,16.25
2023-05-22T02:54:27.893Z,16.36
2023-05-22T02:57:29.487Z,16.31
2023-05-22T03:00:33.919Z,16.22
2023-05-22T03:03:36.444Z,16.20
2023-05-22T03:06:57.301Z,16.22
2023-05-22T03:10:00.947Z,16.12
2023-05-22T03:13:09.908Z,16.23
2023-05-22T03:16:12.050Z,15.99
2023-05-22T03:19:24.943Z,15.87
2023-05-22T03:22:28.003Z,15.85
2023-05-22T03:25:39.438Z,15.87
2023-05-22T03:32:03.486Z,15.31
2023-05-22T03:35:06.876Z,15.20
2023-05-22T03:38:11.724Z,15.16
2023-05-22T03:41:14.154Z,14.89
2023-05-22T03:44:18.907Z,14.97
2023-05-22T03:47:21.046Z,14.82
2023-05-22T03:50:22.719Z,14.72
2023-05-22T03:53:27.343Z,14.66
2023-05-22T03:56:32.070Z,14.72
2023-05-22T03:59:33.843Z,14.66
2023-05-22T04:02:45.323Z,14.69
2023-05-22T04:09:11.660Z,14.77
2023-05-22T04:12:15.144Z,14.70
2023-05-22T04:15:21.847Z,14.77
2023-05-22T04:18:49.040Z,14.92
2023-05-22T04:21:51.205Z,15.01
2023-05-22T04:24:53.566Z,15.20
2023-05-22T04:27:57.459Z,15.38
2023-05-22T04:30:59.285Z,15.57
2023-05-22T04:37:39.229Z,15.30
2023-05-22T04:40:48.266Z,15.21
2023-05-22T04:43:49.992Z,15.06
2023-05-22T04:46:55.815Z,14.99
2023-05-22T04:50:19.075Z,14.81
2023-05-22T04:53:20.782Z,14.82
2023-05-22T04:56:37.756Z,14.85
2023-05-22T04:59:41.370Z,14.86
2023-05-22T05:02:47.178Z,14.86
2023-05-22T05:05:48.869Z,15.14
2023-05-22T05:08:55.052Z,15.25
2023-05-22T05:11:56.864Z,15.38
2023-05-22T05:14:58.591Z,15.36
2023-05-22T05:18:03.319Z,15.50
2023-05-22T05:21:07.303Z,15.47
2023-05-22T05:27:27.095Z,15.63
2023-05-22T05:30:32.568Z,15.58
2023-05-22T05:33:43.214Z,15.78
2023-05-22T05:37:04.748Z,15.78
2023-05-22T05:40:08.109Z,15.79
2023-05-22T05:43:15.098Z,15.93
2023-05-22T05:46:17.356Z,15.98
2023-05-22T05:49:19.888Z,16.16
2023-05-22T05:52:22.460Z,16.41
2023-05-22T05:55:30.035Z,16.76
2023-05-22T05:58:36.190Z,16.89
2023-05-22T06:02:14.659Z,17.14
2023-05-22T06:05:19.334Z,17.28
2023-05-22T06:08:31.440Z,17.41
2023-05-22T06:11:33.830Z,17.44
2023-05-22T06:14:37.351Z,17.44
2023-05-22T06:17:39.277Z,17.72
2023-05-22T06:20:58.999Z,17.74
2023-05-22T06:24:00.609Z,17.90
2023-05-22T06:30:38.887Z,18.00
2023-05-22T06:33:43.834Z,18.19
2023-05-22T06:36:46.009Z,18.11
2023-05-22T06:39:55.672Z,18.23
2023-05-22T06:43:05.016Z,17.87
2023-05-22T06:46:22.254Z,18.02
2023-05-22T06:49:27.412Z,18.19
2023-05-22T06:52:31.849Z,18.26
2023-05-22T06:55:34.169Z,18.10
2023-05-22T07:02:08.698Z,18.06
2023-05-22T07:05:38.113Z,18.32
2023-05-22T07:08:40.255Z,18.44
2023-05-22T07:11:46.082Z,18.56
2023-05-22T07:14:50.321Z,18.62
2023-05-22T07:17:52.567Z,18.84
2023-05-22T07:21:01.465Z,18.97
2023-05-22T07:24:08.512Z,19.14
2023-05-22T07:30:32.984Z,19.40
2023-05-22T07:33:36.331Z,19.56
2023-05-22T07:36:47.197Z,19.93
2023-05-22T07:40:21.594Z,20.41
2023-05-22T07:43:26.426Z,20.77
2023-05-22T07:46:45.211Z,20.58
2023-05-22T07:49:51.388Z,20.76
2023-05-22T07:53:02.316Z,21.10
2023-05-22T07:56:11.344Z,21.55
2023-05-22T07:59:15.535Z,21.75
2023-05-22T08:02:18.636Z,21.96
2023-05-22T08:05:20.363Z,22.37
2023-05-22T08:08:22.364Z,22.65
2023-05-22T08:11:27.040Z,23.00
2023-05-22T08:14:30.549Z,23.00
2023-05-22T08:17:36.328Z,22.66
2023-05-22T08:20:38.946Z,23.19
2023-05-22T08:23:42.404Z,22.62
2023-05-22T08:26:44.084Z,22.42
2023-05-22T08:29:49.480Z,22.97
2023-05-22T08:32:56.549Z,23.15
2023-05-22T08:35:58.430Z,23.03
2023-05-22T08:39:10.959Z,23.68
2023-05-22T08:42:15.041Z,23.68
2023-05-22T08:45:17.422Z,23.15
2023-05-22T08:48:22.164Z,23.50
2023-05-22T08:51:28.775Z,23.92
2023-05-22T08:54:32.217Z,24.08
2023-05-22T08:57:42.103Z,23.70
2023-05-22T09:00:45.933Z,23.95
2023-05-22T09:04:16.799Z,24.06
2023-05-22T09:07:25.869Z,24.29
2023-05-22T09:10:39.223Z,24.27
2023-05-22T09:14:06.934Z,24.55
2023-05-22T09:17:15.407Z,24.83
2023-05-22T09:20:20.513Z,24.69
2023-05-22T09:23:24.469Z,24.82
2023-05-22T09:26:33.639Z,24.95
2023-05-22T09:30:08.742Z,24.77
2023-05-22T09:33:13.032Z,24.60
2023-05-22T09:36:33.684Z,25.41
2023-05-22T09:39:46.436Z,25.78
2023-05-22T09:42:54.315Z,25.82
2023-05-22T09:46:01.010Z,25.76
2023-05-22T09:49:03.293Z,25.74
2023-05-22T09:52:08.375Z,25.83
2023-05-22T09:55:10.763Z,25.31
2023-05-22T09:58:13.931Z,26.02
2023-05-22T10:01:19.415Z,26.24
2023-05-22T10:04:23.095Z,26.49
2023-05-22T10:07:39.815Z,26.65
2023-05-22T10:10:43.241Z,26.79
2023-05-22T10:13:47.574Z,26.85
2023-05-22T10:16:49.649Z,26.79
2023-05-22T10:19:53.324Z,26.87
2023-05-22T10:22:58.801Z,27.17
2023-05-22T10:26:00.946Z,27.21
2023-05-22T10:29:09.464Z,27.03
2023-05-22T10:32:35.806Z,26.69
2023-05-22T10:35:46.203Z,26.80
2023-05-22T10:38:59.283Z,26.97
2023-05-22T10:42:01.890Z,27.12
2023-05-22T10:45:16.589Z,27.19
2023-05-22T10:48:22.159Z,27.41
2023-05-22T10:51:34.604Z,27.48
2023-05-22T10:54:46.243Z,27.83
2023-05-22T10:57:48.363Z,27.64
2023-05-22T11:01:16.249Z,27.73
2023-05-22T11:04:25.715Z,28.10
2023-05-22T11:07:42.468Z,28.56
2023-05-22T11:10:59.254Z,28.03
2023-05-22T11:14:11.041Z,27.79
2023-05-22T11:17:13.530Z,27.77
2023-05-22T11:20:39.896Z,28.18
2023-05-22T11:23:47.828Z,28.72
2023-05-22T11:27:05.906Z,28.48
2023-05-22T11:30:08.705Z,28.34
2023-05-22T11:33:12.693Z,27.88
2023-05-22T11:36:15.832Z,28.33
2023-05-22T11:39:17.454Z,28.35
2023-05-22T11:49:02.639Z,28.76
2023-05-22T11:52:11.926Z,29.11
2023-05-22T11:55:19.592Z,28.91
2023-05-22T11:58:33.569Z,29.21
2023-05-22T12:01:45.408Z,29.25
2023-05-22T12:05:12.663Z,29.02
2023-05-22T12:08:17.543Z,28.94
2023-05-22T12:11:19.272Z,28.62
2023-05-22T12:14:29.371Z,28.98
2023-05-22T12:17:40.257Z,29.05
2023-05-22T12:20:43.521Z,29.48
2023-05-22T12:23:50.092Z,29.96
2023-05-22T12:26:57.803Z,29.90
2023-05-22T12:30:17.017Z,30.10
2023-05-22T12:33:22.292Z,29.85
2023-05-22T12:40:11.565Z,30.32
2023-05-22T12:43:16.330Z,30.44
2023-05-22T12:46:19.886Z,29.78
2023-05-22T12:49:21.550Z,29.48
2023-05-22T12:52:23.125Z,29.89
2023-05-22T12:55:26.997Z,30.15
2023-05-22T12:58:28.826Z,29.81
2023-05-22T13:01:40.036Z,29.66
2023-05-22T13:04:41.713Z,29.98
2023-05-22T13:07:43.301Z,29.15
2023-05-22T13:10:44.957Z,28.99
2023-05-22T13:13:53.704Z,28.60
2023-05-22T13:16:55.362Z,29.71
2023-05-22T13:19:58.080Z,30.45
2023-05-22T13:22:59.727Z,30.10
2023-05-22T13:26:04.482Z,30.41
2023-05-22T13:29:06.878Z,30.04
2023-05-22T13:32:17.203Z,29.90
2023-05-22T13:35:21.578Z,28.96
2023-05-22T13:38:29.176Z,28.92
2023-05-22T13:41:31.084Z,29.21
2023-05-22T13:44:32.703Z,29.75
2023-05-22T13:47:42.200Z,30.05
2023-05-22T13:50:50.180Z,29.37
2023-05-22T13:53:51.847Z,28.87
2023-05-22T13:56:57.776Z,28.43
2023-05-22T14:00:01.751Z,28.43
2023-05-22T14:03:09.240Z,28.26
2023-05-22T14:06:13.532Z,28.96
2023-05-22T14:09:22.641Z,29.02
2023-05-22T14:12:31.317Z,28.49
2023-05-22T14:15:32.912Z,28.65
2023-05-22T14:18:34.499Z,28.64
2023-05-22T14:24:53.969Z,27.80
2023-05-22T14:28:00.726Z,27.74
2023-05-22T14:31:02.690Z,27.70
2023-05-22T14:34:04.351Z,27.65
2023-05-22T14:37:06.064Z,27.86
2023-05-22T14:40:10.748Z,27.32
2023-05-22T14:43:12.430Z,27.39
2023-05-22T14:46:20.271Z,28.01
2023-05-22T14:49:24.170Z,28.30
2023-05-22T14:52:25.797Z,28.24
2023-05-22T14:55:28.173Z,28.14
2023-05-22T14:58:33.158Z,28.11
2023-05-22T15:01:34.815Z,28.23
2023-05-22T15:04:36.493Z,28.34
2023-05-22T15:10:57.045Z,27.01
2023-05-22T15:14:01.727Z,26.92
2023-05-22T15:17:05.341Z,27.31
2023-05-22T15:20:25.341Z,26.93
2023-05-22T15:23:27.101Z,26.79
2023-05-22T15:26:31.452Z,26.89
2023-05-22T15:29:33.238Z,27.09
2023-05-22T15:32:36.478Z,26.35
2023-05-22T15:35:40.366Z,25.65
2023-05-22T15:38:42.541Z,25.18
2023-05-22T15:41:51.580Z,24.68
2023-05-22T15:45:01.100Z,24.89
2023-05-22T15:48:05.028Z,24.47
2023-05-22T15:51:13.111Z,23.97
2023-05-22T15:54:15.047Z,24.00
2023-05-22T15:57:19.833Z,23.89
2023-05-22T16:00:21.565Z,23.73
2023-05-22T16:03:33.514Z,23.95
2023-05-22T16:06:36.474Z,23.73
2023-05-22T16:09:43.407Z,23.55
2023-05-22T16:12:45.100Z,23.53
2023-05-22T16:15:54.808Z,23.44
2023-05-22T16:18:59.228Z,23.49
2023-05-22T16:22:01.058Z,23.33
2023-05-22T16:25:02.695Z,23.51
2023-05-22T16:28:08.153Z,23.64
2023-05-22T16:31:09.915Z,23.51
2023-05-22T16:34:24.037Z,23.68
2023-05-22T16:37:32.812Z,23.64
2023-05-22T16:40:34.572Z,23.68
2023-05-22T16:43:37.694Z,23.68
2023-05-22T16:46:41.464Z,23.84
2023-05-22T16:49:43.273Z,23.83
2023-05-22T16:52:44.848Z,23.58
2023-05-22T16:55:48.223Z,23.53
2023-05-22T16:58:52.704Z,23.46
2023-05-22T17:01:56.179Z,23.19
2023-05-22T17:05:04.803Z,23.03
2023-05-22T17:08:09.419Z,22.50
2023-05-22T17:11:11.116Z,22.20
2023-05-22T17:14:12.854Z,22.36
2023-05-22T17:17:17.572Z,22.53
2023-05-22T17:20:23.069Z,22.59
2023-05-22T17:23:24.763Z,22.56
2023-05-22T17:26:27.702Z,22.27
2023-05-22T17:29:31.819Z,22.15
2023-05-22T17:32:59.256Z,22.14
2023-05-22T17:36:00.920Z,22.13
2023-05-22T17:39:02.605Z,22.03
2023-05-22T17:42:18.821Z,22.01
2023-05-22T17:45:22.258Z,22.03
2023-05-22T17:48:29.077Z,21.90
2023-05-22T17:51:32.291Z,21.77
2023-05-22T17:54:35.264Z,21.82
2023-05-22T17:57:36.902Z,21.70
2023-05-22T18:07:29.290Z,21.35
2023-05-22T18:10:31.221Z,21.21
2023-05-22T18:13:32.781Z,21.15
2023-05-22T18:16:34.509Z,21.14
2023-05-22T18:19:48.527Z,21.10
2023-05-22T18:22:50.404Z,20.89
2023-05-22T18:25:57.329Z,20.81
2023-05-22T18:28:59.238Z,20.79
2023-05-22T18:32:03.844Z,20.76
2023-05-22T18:35:10.133Z,20.76
2023-05-22T18:38:11.761Z,20.72
2023-05-22T18:41:13.384Z,20.67
2023-05-22T18:44:20.124Z,20.53
2023-05-22T18:47:25.685Z,20.42
2023-05-22T18:53:47.607Z,20.28
2023-05-22T18:56:51.509Z,20.05
2023-05-22T18:59:53.004Z,19.80
2023-05-22T19:03:00.014Z,19.76
2023-05-22T19:06:04.007Z,19.56
2023-05-22T19:09:05.812Z,19.19
2023-05-22T19:12:09.410Z,19.12
2023-05-22T19:15:13.910Z,18.96
2023-05-22T19:18:19.404Z,18.95
2023-05-22T19:21:33.253Z,19.04
2023-05-22T19:24:36.361Z,19.02
2023-05-22T19:27:39.269Z,18.99
2023-05-22T19:30:43.646Z,18.99
2023-05-22T19:33:51.865Z,18.91
2023-05-22T19:36:59.549Z,18.51
2023-05-22T19:40:20.637Z,18.52
2023-05-22T19:43:24.534Z,18.62
2023-05-22T19:46:32.346Z,18.60
2023-05-22T19:49:36.883Z,18.55
2023-05-22T19:52:38.622Z,18.73
2023-05-22T19:55:40.222Z,18.47
2023-05-22T19:58:41.921Z,18.47
2023-05-22T20:01:53.451Z,18.44
2023-05-22T20:04:55.374Z,18.30
2023-05-22T20:07:58.772Z,18.25
2023-05-22T20:11:03.522Z,18.28
2023-05-22T20:14:05.460Z,18.41
2023-05-22T20:17:09.767Z,18.43
2023-05-22T20:20:13.484Z,18.37
2023-05-22T20:23:17.769Z,18.25
2023-05-22T20:26:20.065Z,18.29
2023-05-22T20:29:21.784Z,18.18
2023-05-22T20:32:23.540Z,18.24
2023-05-22T20:35:31.281Z,18.12
2023-05-22T20:38:34.694Z,17.98
2023-05-22T20:41:42.486Z,18.06
2023-05-22T20:44:44.211Z,17.89
2023-05-22T20:47:48.824Z,17.90
2023-05-22T20:50:50.843Z,17.74
2023-05-22T20:53:53.446Z,17.68
2023-05-22T20:56:56.275Z,17.76
2023-05-22T20:59:58.503Z,17.66
2023-05-22T21:03:03.565Z,17.55
2023-05-22T21:06:11.448Z,17.56
2023-05-22T21:09:13.567Z,17.46
2023-05-22T21:12:22.606Z,17.52
2023-05-22T21:15:24.228Z,17.41
2023-05-22T21:18:34.551Z,17.40
2023-05-22T21:21:41.478Z,17.54
2023-05-22T21:24:46.147Z,17.54
2023-05-22T21:27:49.357Z,17.40
2023-05-22T21:31:00.407Z,17.32
2023-05-22T21:34:04.731Z,17.40
2023-05-22T21:37:13.549Z,17.35
2023-05-22T21:40:15.302Z,17.41
2023-05-22T21:43:29.247Z,17.25
2023-05-22T21:46:32.656Z,17.22
2023-05-22T21:49:34.296Z,17.24
2023-05-22T21:52:35.876Z,17.16
2023-05-22T21:55:39.593Z,17.20
2023-05-22T21:58:41.985Z,17.37
2023-05-22T22:02:01.079Z,17.24
2023-05-22T22:05:03.002Z,17.39
2023-05-22T22:08:04.992Z,17.35
2023-05-22T22:11:06.999Z,17.13
2023-05-22T22:14:11.828Z,17.19
2023-05-22T22:17:16.589Z,17.19
2023-05-22T22:20:39.525Z,16.99
2023-05-22T22:23:52.798Z,16.84
2023-05-22T22:26:54.938Z,16.88
2023-05-22T22:29:56.705Z,16.86
2023-05-22T22:32:58.392Z,16.86
2023-05-22T22:36:04.091Z,16.76
2023-05-22T22:39:17.736Z,16.80
2023-05-22T22:42:19.347Z,16.80
2023-05-22T22:48:37.163Z,16.62
2023-05-22T22:51:39.714Z,16.67
2023-05-22T22:54:44.615Z,16.53
2023-05-22T22:57:50.158Z,16.52
2023-05-22T23:00:57.996Z,16.47
2023-05-22T23:04:01.942Z,16.54
2023-05-22T23:07:04.143Z,16.49
2023-05-22T23:10:06.561Z,16.57
2023-05-22T23:13:13.245Z,16.50
2023-05-22T23:16:14.973Z,16.50
2023-05-22T23:19:19.744Z,16.32
2023-05-22T23:22:21.353Z,16.33
2023-05-22T23:25:23.634Z,16.27
2023-05-22T23:28:25.301Z,16.29
2023-05-22T23:31:30.232Z,16.39
2023-05-22T23:34:32.229Z,16.37
2023-05-22T23:37:36.106Z,16.19
2023-05-22T23:40:43.912Z,16.26
2023-05-22T23:43:46.545Z,16.14
2023-05-22T23:46:54.384Z,16.02
2023-05-22T23:49:56.736Z,15.90
2023-05-22T23:53:00.470Z,15.93
2023-05-22T23:56:05.937Z,15.88
2023-05-22T23:59:14.613Z,15.96
